Time;durP1;ratioP1;P1;durP2;ratioP2;P2;SDS_P1;SDS_P2;PMS_P1;PMS_P2;Temp;Humidity;BMP_temperature;BMP_pressure;BME280_temperature;BME280_humidity;BME280_pressure;Samples;Min_cycle;Max_cycle;Signal;HPM_P1;HPM_P2
2023/08/26 00:02:01;;;;;;;0.00;0.00;;;;;;;;;;6249832;28;20013;-88
2023/08/26 00:05:01;;;;;;;0.00;0.00;;;;;;;;;;6268508;28;20048;-88
2023/08/26 00:08:01;;;;;;;0.00;0.00;;;;;;;;;;6268872;28;20100;-88
2023/08/26 00:11:01;;;;;;;0.03;0.03;;;;;;;;;;6267648;28;20136;-88
2023/08/26 00:14:03;;;;;;;0.00;0.00;;;;;;;;;;6250581;28;20116;-88
2023/08/26 00:17:04;;;;;;;0.00;0.00;;;;;;;;;;6265569;28;20013;-88
2023/08/26 00:20:09;;;;;;;0.00;0.00;;;;;;;;;;6249782;28;20462;-88
2023/08/26 00:23:09;;;;;;;0.00;0.00;;;;;;;;;;6268083;28;20040;-88
2023/08/26 00:26:11;;;;;;;0.00;0.00;;;;;;;;;;6250788;28;20087;-88
2023/08/26 00:29:11;;;;;;;;;;;;;;;;;;6270669;28;20012;-88
2023/08/26 00:32:11;;;;;;;0.00;0.00;;;;;;;;;;6251161;28;20001;-88
2023/08/26 00:35:11;;;;;;;0.00;0.00;;;;;;;;;;6249249;28;20108;-88
2023/08/26 00:38:11;;;;;;;0.00;0.00;;;;;;;;;;6250085;28;20021;-88
2023/08/26 00:41:12;;;;;;;0.00;0.00;;;;;;;;;;6249286;28;20109;-88
2023/08/26 00:44:12;;;;;;;0.00;0.00;;;;;;;;;;6249664;28;20009;-88
2023/08/26 00:47:12;;;;;;;0.00;0.00;;;;;;;;;;6268029;28;20092;-88
2023/08/26 00:50:13;;;;;;;0.00;0.00;;;;;;;;;;6249002;28;20035;-88
2023/08/26 00:53:14;;;;;;;0.00;0.00;;;;;;;;;;6267085;28;20044;-88
2023/08/26 00:56:14;;;;;;;0.00;0.00;;;;;;;;;;6266936;28;20031;-88
2023/08/26 00:59:15;;;;;;;0.00;0.00;;;;;;;;;;6265996;28;20020;-88
2023/08/26 01:02:15;;;;;;;0.10;0.10;;;;;;;;;;6267642;28;20017;-88
2023/08/26 01:05:16;;;;;;;0.00;0.00;;;;;;;;;;6267820;28;20017;-88
2023/08/26 01:08:16;;;;;;;0.00;0.00;;;;;;;;;;6248792;28;20013;-86
2023/08/26 01:11:23;;;;;;;0.00;0.00;;;;;;;;;;6266742;28;20065;-87
2023/08/26 01:14:32;;;;;;;0.00;0.00;;;;;;;;;;6247689;28;20021;-87
2023/08/26 01:17:33;;;;;;;0.00;0.00;;;;;;;;;;6266134;28;20020;-87
2023/08/26 01:20:34;;;;;;;0.00;0.00;;;;;;;;;;6248834;28;20064;-87
2023/08/26 01:23:44;;;;;;;0.00;0.00;;;;;;;;;;6248001;28;20021;-86
2023/08/26 01:26:44;;;;;;;0.00;0.00;;;;;;;;;;6267032;28;20024;-86
2023/08/26 01:29:44;;;;;;;0.00;0.00;;;;;;;;;;6265901;28;20566;-86
2023/08/26 01:33:03;;;;;;;0.00;0.00;;;;;;;;;;6261030;28;20020;-87
2023/08/26 01:36:08;;;;;;;0.00;0.00;;;;;;;;;;6262196;28;20115;-87
2023/08/26 01:39:09;;;;;;;0.00;0.00;;;;;;;;;;6266083;28;20035;-86
2023/08/26 01:42:12;;;;;;;0.00;0.00;;;;;;;;;;6248527;28;20120;-86
2023/08/26 01:45:13;;;;;;;0.00;0.00;;;;;;;;;;6249064;28;20028;-86
2023/08/26 01:48:13;;;;;;;0.00;0.00;;;;;;;;;;6266739;28;20021;-86
2023/08/26 01:51:13;;;;;;;0.00;0.00;;;;;;;;;;6248885;28;20013;-87
2023/08/26 01:54:14;;;;;;;0.00;0.00;;;;;;;;;;6266519;28;20557;-86
2023/08/26 01:57:14;;;;;;;0.00;0.00;;;;;;;;;;6248346;28;20520;-88
2023/08/26 02:00:15;;;;;;;0.00;0.00;;;;;;;;;;6248707;28;20106;-88
2023/08/26 02:03:16;;;;;;;0.00;0.00;;;;;;;;;;6248420;28;20362;-88
2023/08/26 02:06:16;;;;;;;0.10;0.10;;;;;;;;;;6252328;28;20028;-89
2023/08/26 02:09:16;;;;;;;0.00;0.00;;;;;;;;;;6271299;28;20032;-89
2023/08/26 02:12:16;;;;;;;0.10;0.10;;;;;;;;;;6233887;28;20045;-88
2023/08/26 02:15:16;;;;;;;0.10;0.10;;;;;;;;;;6223485;28;20193;-88
2023/08/26 02:18:18;;;;;;;0.00;0.00;;;;;;;;;;6238353;28;20021;-87
2023/08/26 02:21:18;;;;;;;0.00;0.00;;;;;;;;;;6245927;28;20111;-86
2023/08/26 02:24:18;;;;;;;0.10;0.10;;;;;;;;;;6246744;28;20037;-86
2023/08/26 02:27:19;;;;;;;0.00;0.00;;;;;;;;;;6266271;28;20048;-87
2023/08/26 02:30:19;;;;;;;0.00;0.00;;;;;;;;;;6246127;28;20010;-86
2023/08/26 02:33:19;;;;;;;0.00;0.00;;;;;;;;;;6241573;28;20091;-86
2023/08/26 02:36:19;;;;;;;0.10;0.10;;;;;;;;;;6250239;28;20022;-86
2023/08/26 02:39:19;;;;;;;0.00;0.00;;;;;;;;;;6236679;28;20487;-86
2023/08/26 02:42:20;;;;;;;0.00;0.00;;;;;;;;;;6236658;28;20484;-86
2023/08/26 02:45:20;;;;;;;0.10;0.10;;;;;;;;;;6250118;28;20380;-86
2023/08/26 02:48:21;;;;;;;0.10;0.10;;;;;;;;;;6260288;28;20116;-86
2023/08/26 02:51:21;;;;;;;0.00;0.00;;;;;;;;;;6247234;28;20108;-86
2023/08/26 02:54:22;;;;;;;0.00;0.00;;;;;;;;;;6235455;28;20071;-86
2023/08/26 02:57:22;;;;;;;0.10;0.10;;;;;;;;;;6242812;28;20017;-86
2023/08/26 03:00:22;;;;;;;0.03;0.03;;;;;;;;;;6237255;28;20017;-86
2023/08/26 03:03:23;;;;;;;0.10;0.10;;;;;;;;;;6257920;28;20045;-86
2023/08/26 03:06:23;;;;;;;0.00;0.00;;;;;;;;;;6235354;28;20009;-86
2023/08/26 03:09:23;;;;;;;0.10;0.10;;;;;;;;;;6245914;28;20022;-87
2023/08/26 03:12:24;;;;;;;0.00;0.00;;;;;;;;;;6244359;28;20037;-86
2023/08/26 03:15:28;;;;;;;0.10;0.10;;;;;;;;;;6244137;28;20017;-86
2023/08/26 03:18:29;;;;;;;0.10;0.10;;;;;;;;;;6234489;28;20531;-86
2023/08/26 03:21:31;;;;;;;0.00;0.00;;;;;;;;;;6244821;28;20021;-86
2023/08/26 03:24:34;;;;;;;0.00;0.00;;;;;;;;;;6242755;28;20067;-86
2023/08/26 03:27:34;;;;;;;0.00;0.00;;;;;;;;;;6232959;28;20495;-86
2023/08/26 03:30:35;;;;;;;0.10;0.10;;;;;;;;;;6243915;28;20022;-86
2023/08/26 03:33:35;;;;;;;0.00;0.00;;;;;;;;;;6244066;28;20043;-86
2023/08/26 03:36:35;;;;;;;0.00;0.00;;;;;;;;;;6243989;28;20028;-86
2023/08/26 03:39:37;;;;;;;0.00;0.00;;;;;;;;;;6243088;28;20032;-86
2023/08/26 03:42:37;;;;;;;;;;;;;;;;;;6227202;28;20079;-86
2023/08/26 03:45:39;;;;;;;0.10;0.10;;;;;;;;;;6244733;28;20363;-85
2023/08/26 03:48:39;;;;;;;0.00;0.00;;;;;;;;;;6233003;28;20579;-86
2023/08/26 03:51:39;;;;;;;0.00;0.00;;;;;;;;;;6225443;28;20021;-85
2023/08/26 03:54:39;;;;;;;0.10;0.10;;;;;;;;;;6248420;28;20022;-86
2023/08/26 03:57:40;;;;;;;0.10;0.10;;;;;;;;;;6229777;28;20416;-86
2023/08/26 04:00:40;;;;;;;0.00;0.00;;;;;;;;;;6232864;28;20029;-85
2023/08/26 04:03:41;;;;;;;0.10;0.10;;;;;;;;;;6244358;28;20016;-86
2023/08/26 04:06:41;;;;;;;0.00;0.00;;;;;;;;;;6245079;28;20010;-85
2023/08/26 04:09:42;;;;;;;0.00;0.00;;;;;;;;;;6225782;28;20256;-85
2023/08/26 04:12:42;;;;;;;0.10;0.10;;;;;;;;;;6209833;28;20052;-86
2023/08/26 04:15:42;;;;;;;0.00;0.00;;;;;;;;;;6248546;28;20048;-86
2023/08/26 04:18:43;;;;;;;0.00;0.00;;;;;;;;;;6250366;28;20487;-89
2023/08/26 04:21:43;;;;;;;0.07;0.07;;;;;;;;;;6244087;28;20076;-89
2023/08/26 04:24:43;;;;;;;0.00;0.00;;;;;;;;;;6248356;28;20018;-88
2023/08/26 04:27:43;;;;;;;0.00;0.00;;;;;;;;;;6251694;28;20013;-88
2023/08/26 04:30:45;;;;;;;0.10;0.10;;;;;;;;;;6245349;28;20502;-88
2023/08/26 04:33:46;;;;;;;0.00;0.00;;;;;;;;;;6224649;28;20499;-88
2023/08/26 04:36:46;;;;;;;0.00;0.00;;;;;;;;;;6252752;28;20024;-89
2023/08/26 04:39:47;;;;;;;0.00;0.00;;;;;;;;;;6243858;28;20032;-89
2023/08/26 04:42:47;;;;;;;0.10;0.10;;;;;;;;;;6221874;28;20490;-88
2023/08/26 04:45:47;;;;;;;0.00;0.00;;;;;;;;;;6245922;28;20446;-88
2023/08/26 04:48:48;;;;;;;0.10;0.10;;;;;;;;;;6256291;28;20037;-88
2023/08/26 04:51:52;;;;;;;0.00;0.00;;;;;;;;;;6243057;28;20028;-88
2023/08/26 04:54:53;;;;;;;0.00;0.00;;;;;;;;;;6247096;28;20140;-88
2023/08/26 04:57:53;;;;;;;0.00;0.00;;;;;;;;;;6247596;28;20044;-89
2023/08/26 05:00:54;;;;;;;0.10;0.10;;;;;;;;;;6255602;28;20027;-89
2023/08/26 05:03:54;;;;;;;0.00;0.00;;;;;;;;;;6250666;28;20099;-89
2023/08/26 05:06:54;;;;;;;0.00;0.00;;;;;;;;;;6260773;28;20159;-89
2023/08/26 05:09:55;;;;;;;0.00;0.00;;;;;;;;;;6233008;28;20041;-88
2023/08/26 05:12:55;;;;;;;0.00;0.00;;;;;;;;;;6234468;28;20025;-89
2023/08/26 05:15:55;;;;;;;0.00;0.00;;;;;;;;;;6242243;28;20021;-89
2023/08/26 05:18:55;;;;;;;0.00;0.00;;;;;;;;;;6230461;28;20118;-89
2023/08/26 05:21:57;;;;;;;0.00;0.00;;;;;;;;;;6235201;28;20036;-89
2023/08/26 05:24:57;;;;;;;0.00;0.00;;;;;;;;;;6224836;28;20018;-88
2023/08/26 05:27:58;;;;;;;0.00;0.00;;;;;;;;;;6251855;28;20025;-88
2023/08/26 05:30:58;;;;;;;0.00;0.00;;;;;;;;;;6211841;28;20032;-88
2023/08/26 05:33:59;;;;;;;0.00;0.00;;;;;;;;;;6230426;28;20434;-88
2023/08/26 05:36:59;;;;;;;0.00;0.00;;;;;;;;;;6249831;28;20025;-89
2023/08/26 05:39:59;;;;;;;0.00;0.00;;;;;;;;;;6240783;28;20095;-89
2023/08/26 05:42:59;;;;;;;0.00;0.00;;;;;;;;;;6211216;28;20786;-88
2023/08/26 05:46:00;;;;;;;0.00;0.00;;;;;;;;;;6227002;28;20112;-88
2023/08/26 05:49:00;;;;;;;0.00;0.00;;;;;;;;;;6242485;28;20071;-88
2023/08/26 05:52:01;;;;;;;0.00;0.00;;;;;;;;;;6235537;28;20032;-88
2023/08/26 05:55:01;;;;;;;0.00;0.00;;;;;;;;;;6251701;28;20034;-89
2023/08/26 05:58:02;;;;;;;0.00;0.00;;;;;;;;;;6218336;28;20049;-89
2023/08/26 06:01:03;;;;;;;0.00;0.00;;;;;;;;;;6234874;28;20036;-89
2023/08/26 06:04:04;;;;;;;0.00;0.00;;;;;;;;;;6241663;28;20029;-89
2023/08/26 06:07:04;;;;;;;0.00;0.00;;;;;;;;;;6236742;28;20586;-89
2023/08/26 06:10:05;;;;;;;0.00;0.00;;;;;;;;;;6231590;28;20284;-89
2023/08/26 06:13:05;;;;;;;0.00;0.00;;;;;;;;;;6211986;28;20029;-89
2023/08/26 06:16:05;;;;;;;;;;;;;;;;;;6241954;28;20037;-89
2023/08/26 06:19:06;;;;;;;0.00;0.00;;;;;;;;;;6224715;28;19992;-89
2023/08/26 06:22:06;;;;;;;;;;;;;;;;;;6229962;28;20377;-89
2023/08/26 06:25:06;;;;;;;0.00;0.00;;;;;;;;;;6230561;28;19955;-90
2023/08/26 06:28:07;;;;;;;;;;;;;;;;;;6236021;28;20049;-89
2023/08/26 06:31:07;;;;;;;0.00;0.00;;;;;;;;;;6241294;28;19908;-90
2023/08/26 06:34:07;;;;;;;;;;;;;;;;;;6239693;28;20101;-90
2023/08/26 06:37:07;;;;;;;0.00;0.00;;;;;;;;;;6242747;28;19917;-89
2023/08/26 06:40:08;;;;;;;0.00;0.00;;;;;;;;;;6218640;28;20472;-90
2023/08/26 06:43:08;;;;;;;0.00;0.00;;;;;;;;;;6231096;28;20048;-89
2023/08/26 06:46:08;;;;;;;0.00;0.00;;;;;;;;;;6238355;28;20021;-90
2023/08/26 06:49:09;;;;;;;0.00;0.00;;;;;;;;;;6232185;28;20045;-90
2023/08/26 06:52:10;;;;;;;0.00;0.00;;;;;;;;;;6227016;28;20021;-90
2023/08/26 06:55:13;;;;;;;0.00;0.00;;;;;;;;;;6243144;28;20017;-90
2023/08/26 06:58:13;;;;;;;0.00;0.00;;;;;;;;;;6243120;28;20291;-88
2023/08/26 07:01:13;;;;;;;0.00;0.00;;;;;;;;;;6240308;28;20025;-88
2023/08/26 07:04:14;;;;;;;0.00;0.00;;;;;;;;;;6243823;28;20013;-88
2023/08/26 07:07:14;;;;;;;0.00;0.00;;;;;;;;;;6231348;28;20021;-88
2023/08/26 07:10:14;;;;;;;0.00;0.00;;;;;;;;;;6246508;28;20037;-88
2023/08/26 07:13:14;;;;;;;0.00;0.00;;;;;;;;;;6240502;28;20025;-88
2023/08/26 07:16:15;;;;;;;0.00;0.00;;;;;;;;;;6227697;28;20029;-88
2023/08/26 07:19:15;;;;;;;0.00;0.00;;;;;;;;;;6227530;28;20022;-88
2023/08/26 07:22:15;;;;;;;0.00;0.00;;;;;;;;;;6241374;28;20396;-91
2023/08/26 07:25:16;;;;;;;0.00;0.00;;;;;;;;;;6235012;28;20016;-90
2023/08/26 07:28:16;;;;;;;0.00;0.00;;;;;;;;;;6261722;28;20013;-87
2023/08/26 07:31:16;;;;;;;0.00;0.00;;;;;;;;;;6235900;28;20096;-89
2023/08/26 07:34:17;;;;;;;0.00;0.00;;;;;;;;;;6211679;28;20044;-89
2023/08/26 07:37:18;;;;;;;0.00;0.00;;;;;;;;;;6234301;28;20013;-84
2023/08/26 07:40:19;;;;;;;0.00;0.00;;;;;;;;;;6254386;28;20066;-88
2023/08/26 07:43:19;;;;;;;0.00;0.00;;;;;;;;;;6233918;28;20022;-89
2023/08/26 07:46:22;;;;;;;0.00;0.00;;;;;;;;;;6241610;28;20029;-88
2023/08/26 07:49:22;;;;;;;0.00;0.00;;;;;;;;;;6242721;28;20140;-89
2023/08/26 07:52:23;;;;;;;0.00;0.00;;;;;;;;;;6231671;28;20018;-87
2023/08/26 07:55:23;;;;;;;0.00;0.00;;;;;;;;;;6249180;28;20013;-87
2023/08/26 07:58:23;;;;;;;0.00;0.00;;;;;;;;;;6245128;28;20271;-87
2023/08/26 08:01:23;;;;;;;0.00;0.00;;;;;;;;;;6232804;28;20021;-87
2023/08/26 08:04:24;;;;;;;0.00;0.00;;;;;;;;;;6236346;28;20029;-88
2023/08/26 08:07:24;;;;;;;0.00;0.00;;;;;;;;;;6228778;28;20030;-88
2023/08/26 08:10:24;;;;;;;0.00;0.00;;;;;;;;;;6237277;28;20496;-88
2023/08/26 08:13:24;;;;;;;0.00;0.00;;;;;;;;;;6244072;28;20108;-88
2023/08/26 08:16:24;;;;;;;0.00;0.00;;;;;;;;;;6237417;28;20037;-87
2023/08/26 08:19:25;;;;;;;0.00;0.00;;;;;;;;;;6227677;28;20100;-87
2023/08/26 08:22:36;;;;;;;0.00;0.00;;;;;;;;;;6242828;28;20102;-88
2023/08/26 08:25:36;;;;;;;0.00;0.00;;;;;;;;;;6233399;28;20009;-88
2023/08/26 08:28:36;;;;;;;0.00;0.00;;;;;;;;;;6237881;28;20554;-88
2023/08/26 08:31:37;;;;;;;0.00;0.00;;;;;;;;;;6242485;28;20488;-87
2023/08/26 08:34:37;;;;;;;0.00;0.00;;;;;;;;;;6228085;28;20317;-87
2023/08/26 08:37:37;;;;;;;0.00;0.00;;;;;;;;;;6230965;28;20275;-87
2023/08/26 08:40:38;;;;;;;0.00;0.00;;;;;;;;;;6243649;28;20057;-88
2023/08/26 08:43:39;;;;;;;0.00;0.00;;;;;;;;;;6234403;28;20053;-88
2023/08/26 08:46:40;;;;;;;0.00;0.00;;;;;;;;;;6225476;28;20029;-88
2023/08/26 08:49:41;;;;;;;0.00;0.00;;;;;;;;;;6225914;28;20216;-87
2023/08/26 08:52:42;;;;;;;0.00;0.00;;;;;;;;;;6240711;28;20029;-87
2023/08/26 08:55:43;;;;;;;0.00;0.00;;;;;;;;;;6225231;28;20025;-88
2023/08/26 08:58:46;;;;;;;0.00;0.00;;;;;;;;;;6243471;28;20059;-87
2023/08/26 09:01:46;;;;;;;0.00;0.00;;;;;;;;;;6222910;28;20029;-87
2023/08/26 09:04:46;;;;;;;0.00;0.00;;;;;;;;;;6227055;28;20025;-87
2023/08/26 09:07:48;;;;;;;0.00;0.00;;;;;;;;;;6240649;28;20017;-87
2023/08/26 09:10:49;;;;;;;0.00;0.00;;;;;;;;;;6240798;28;20072;-87
2023/08/26 09:13:49;;;;;;;0.00;0.00;;;;;;;;;;6241306;28;20029;-87
2023/08/26 09:16:49;;;;;;;0.00;0.00;;;;;;;;;;6242336;28;20131;-87
2023/08/26 09:19:58;;;;;;;0.00;0.00;;;;;;;;;;6246963;28;20028;-87
2023/08/26 09:23:05;;;;;;;0.00;0.00;;;;;;;;;;6255095;28;20534;-87
2023/08/26 09:26:05;;;;;;;0.00;0.00;;;;;;;;;;6242636;28;20422;-87
2023/08/26 09:29:18;;;;;;;0.00;0.00;;;;;;;;;;6230139;28;20050;-87
2023/08/26 09:32:34;;;;;;;0.00;0.00;;;;;;;;;;6223049;28;20022;-87
2023/08/26 09:35:34;;;;;;;0.00;0.00;;;;;;;;;;6236147;28;20502;-87
2023/08/26 09:38:44;;;;;;;0.00;0.00;;;;;;;;;;6251864;28;20017;-87
2023/08/26 09:41:45;;;;;;;0.00;0.00;;;;;;;;;;6232989;28;20028;-87
2023/08/26 09:44:46;;;;;;;0.00;0.00;;;;;;;;;;6259487;28;20107;-87
2023/08/26 09:47:50;;;;;;;0.00;0.00;;;;;;;;;;6254701;28;20032;-87
2023/08/26 09:50:51;;;;;;;0.00;0.00;;;;;;;;;;6244449;28;20021;-88
2023/08/26 09:53:53;;;;;;;0.00;0.00;;;;;;;;;;6242349;28;20106;-87
2023/08/26 09:56:53;;;;;;;0.00;0.00;;;;;;;;;;6250751;28;20028;-87
2023/08/26 09:59:53;;;;;;;0.00;0.00;;;;;;;;;;6253361;28;20021;-87
2023/08/26 10:02:57;;;;;;;0.00;0.00;;;;;;;;;;6247537;28;20068;-87
2023/08/26 10:05:59;;;;;;;0.00;0.00;;;;;;;;;;6232865;28;20026;-87
2023/08/26 10:09:05;;;;;;;0.00;0.00;;;;;;;;;;6244364;28;20433;-87
2023/08/26 10:12:10;;;;;;;0.00;0.00;;;;;;;;;;6237200;28;20689;-87
2023/08/26 10:15:12;;;;;;;0.00;0.00;;;;;;;;;;6207365;28;20052;-87
2023/08/26 10:18:15;;;;;;;0.00;0.00;;;;;;;;;;6232018;28;20446;-87
2023/08/26 10:21:16;;;;;;;0.00;0.00;;;;;;;;;;6227350;28;20029;-87
2023/08/26 10:24:18;;;;;;;0.00;0.00;;;;;;;;;;6237484;28;20033;-87
2023/08/26 10:27:18;;;;;;;0.00;0.00;;;;;;;;;;6235445;28;20025;-87
2023/08/26 10:30:18;;;;;;;0.00;0.00;;;;;;;;;;6236692;28;20458;-87
2023/08/26 10:33:19;;;;;;;0.00;0.00;;;;;;;;;;6229500;28;20032;-87
2023/08/26 10:36:20;;;;;;;0.00;0.00;;;;;;;;;;6230896;28;20527;-87
2023/08/26 10:39:21;;;;;;;0.00;0.00;;;;;;;;;;6242813;28;20039;-87
2023/08/26 10:42:22;;;;;;;0.00;0.00;;;;;;;;;;6228674;28;20029;-86
2023/08/26 10:45:23;;;;;;;0.00;0.00;;;;;;;;;;6237249;28;20018;-87
2023/08/26 10:48:24;;;;;;;0.00;0.00;;;;;;;;;;6232108;28;20552;-87
2023/08/26 10:51:24;;;;;;;0.00;0.00;;;;;;;;;;6214826;28;20037;-87
2023/08/26 10:54:29;;;;;;;0.00;0.00;;;;;;;;;;6238633;28;20025;-87
2023/08/26 10:57:34;;;;;;;0.00;0.00;;;;;;;;;;6237580;28;20033;-86
2023/08/26 11:00:35;;;;;;;0.00;0.00;;;;;;;;;;6214494;28;20021;-86
2023/08/26 11:03:36;;;;;;;0.00;0.00;;;;;;;;;;6220951;28;20029;-87
2023/08/26 11:06:38;;;;;;;0.00;0.00;;;;;;;;;;6233871;28;20057;-87
2023/08/26 11:09:40;;;;;;;0.00;0.00;;;;;;;;;;6232492;28;20060;-87
2023/08/26 11:12:40;;;;;;;0.00;0.00;;;;;;;;;;6243611;28;20037;-87
2023/08/26 11:15:40;;;;;;;;;;;;;;;;;;6252276;28;20045;-86
2023/08/26 11:18:42;;;;;;;0.00;0.00;;;;;;;;;;6244765;28;20360;-91
2023/08/26 11:21:42;;;;;;;0.00;0.00;;;;;;;;;;6244522;28;20115;-89
2023/08/26 11:24:42;;;;;;;;;;;;;;;;;;6256266;28;20365;-91
2023/08/26 11:27:42;;;;;;;0.00;0.00;;;;;;;;;;6241789;28;20335;-90
2023/08/26 11:30:42;;;;;;;;;;;;;;;;;;6257326;28;20013;-90
2023/08/26 11:33:43;;;;;;;0.00;0.00;;;;;;;;;;6245431;28;19978;-90
2023/08/26 11:36:43;;;;;;;;;;;;;;;;;;6246233;28;20037;-87
2023/08/26 11:39:43;;;;;;;0.00;0.00;;;;;;;;;;6239106;28;19909;-90
2023/08/26 11:42:47;;;;;;;;;;;;;;;;;;6242863;28;20032;-90
2023/08/26 11:45:50;;;;;;;0.00;0.00;;;;;;;;;;6250259;28;19913;-90
2023/08/26 11:48:50;;;;;;;0.00;0.00;;;;;;;;;;6259630;28;20020;-90
2023/08/26 11:51:51;;;;;;;;;;;;;;;;;;6246538;28;20144;-90
2023/08/26 11:54:52;;;;;;;0.00;0.00;;;;;;;;;;6248629;28;19909;-90
2023/08/26 11:57:52;;;;;;;;;;;;;;;;;;6262941;28;20025;-90
2023/08/26 12:00:54;;;;;;;0.00;0.00;;;;;;;;;;6235112;28;19964;-90
2023/08/26 12:03:54;;;;;;;0.00;0.00;;;;;;;;;;6243148;28;20032;-89
2023/08/26 12:06:54;;;;;;;0.00;0.00;;;;;;;;;;6236968;28;20053;-89
2023/08/26 12:09:59;;;;;;;0.00;0.00;;;;;;;;;;6238849;28;20122;-89
2023/08/26 12:13:01;;;;;;;0.00;0.00;;;;;;;;;;6247377;28;20108;-89
2023/08/26 12:16:02;;;;;;;0.00;0.00;;;;;;;;;;6242165;28;20493;-87
2023/08/26 12:19:02;;;;;;;0.00;0.00;;;;;;;;;;6242351;28;20022;-87
2023/08/26 12:22:03;;;;;;;0.00;0.00;;;;;;;;;;6256558;28;20663;-87
2023/08/26 12:25:04;;;;;;;0.00;0.00;;;;;;;;;;6242986;28;20462;-87
2023/08/26 12:28:10;;;;;;;0.00;0.00;;;;;;;;;;6226297;28;20025;-88
2023/08/26 12:31:12;;;;;;;0.00;0.00;;;;;;;;;;6247993;28;20084;-88
2023/08/26 12:34:12;;;;;;;0.00;0.00;;;;;;;;;;6256605;28;20388;-86
2023/08/26 12:37:13;;;;;;;0.00;0.00;;;;;;;;;;6235744;28;20025;-87
2023/08/26 12:40:13;;;;;;;0.00;0.00;;;;;;;;;;6242670;28;20065;-87
2023/08/26 12:43:14;;;;;;;0.00;0.00;;;;;;;;;;6250175;28;20063;-87
2023/08/26 12:46:14;;;;;;;0.00;0.00;;;;;;;;;;6238630;28;20024;-87
2023/08/26 12:49:14;;;;;;;0.00;0.00;;;;;;;;;;6240380;28;20029;-87
2023/08/26 12:52:15;;;;;;;0.00;0.00;;;;;;;;;;6257451;28;20040;-87
2023/08/26 12:55:16;;;;;;;0.00;0.00;;;;;;;;;;6253982;28;20032;-87
2023/08/26 12:58:24;;;;;;;0.00;0.00;;;;;;;;;;6257568;28;20010;-88
2023/08/26 13:01:24;;;;;;;0.00;0.00;;;;;;;;;;6258565;28;20025;-87
2023/08/26 13:04:24;;;;;;;0.00;0.00;;;;;;;;;;6236284;28;20025;-88
2023/08/26 13:07:24;;;;;;;0.00;0.00;;;;;;;;;;6245840;28;20022;-88
2023/08/26 13:10:25;;;;;;;0.00;0.00;;;;;;;;;;6248827;28;20044;-88
2023/08/26 13:13:25;;;;;;;0.00;0.00;;;;;;;;;;6236657;28;20009;-88
2023/08/26 13:16:25;;;;;;;0.00;0.00;;;;;;;;;;6246158;28;20013;-88
2023/08/26 13:19:25;;;;;;;0.00;0.00;;;;;;;;;;6238816;28;20025;-88
2023/08/26 13:22:27;;;;;;;0.00;0.00;;;;;;;;;;6243053;28;20025;-89
2023/08/26 13:25:27;;;;;;;0.00;0.00;;;;;;;;;;6223784;28;20028;-89
2023/08/26 13:28:28;;;;;;;0.00;0.00;;;;;;;;;;6220549;28;20021;-92
2023/08/26 13:31:28;;;;;;;0.00;0.00;;;;;;;;;;6236147;28;20084;-90
2023/08/26 13:34:29;;;;;;;0.00;0.00;;;;;;;;;;6217977;28;20029;-90
2023/08/26 13:37:30;;;;;;;0.00;0.00;;;;;;;;;;6242788;28;20029;-88
2023/08/26 13:40:31;;;;;;;0.00;0.00;;;;;;;;;;6229877;28;20024;-87
2023/08/26 13:43:31;;;;;;;0.00;0.00;;;;;;;;;;6245026;28;20372;-87
2023/08/26 13:46:31;;;;;;;0.00;0.00;;;;;;;;;;6246939;28;20025;-86
2023/08/26 13:49:31;;;;;;;0.00;0.00;;;;;;;;;;6249067;28;20025;-87
2023/08/26 13:52:31;;;;;;;0.00;0.00;;;;;;;;;;6239201;28;20029;-87
2023/08/26 13:55:32;;;;;;;0.00;0.00;;;;;;;;;;6221665;28;20033;-87
2023/08/26 13:58:32;;;;;;;0.00;0.00;;;;;;;;;;6245895;28;20453;-90
2023/08/26 14:01:32;;;;;;;0.00;0.00;;;;;;;;;;6240618;28;20014;-90
2023/08/26 14:04:32;;;;;;;0.00;0.00;;;;;;;;;;6244217;28;20033;-89
2023/08/26 14:07:33;;;;;;;0.00;0.00;;;;;;;;;;6246895;28;20018;-90
2023/08/26 14:10:33;;;;;;;0.00;0.00;;;;;;;;;;6247000;28;20076;-90
2023/08/26 14:13:34;;;;;;;0.00;0.00;;;;;;;;;;6239885;28;20041;-90
2023/08/26 14:16:34;;;;;;;0.00;0.00;;;;;;;;;;6249345;28;20502;-90
2023/08/26 14:19:36;;;;;;;0.00;0.00;;;;;;;;;;6226714;28;20022;-90
2023/08/26 14:22:38;;;;;;;0.00;0.00;;;;;;;;;;6249201;28;20030;-90
2023/08/26 14:25:40;;;;;;;0.00;0.00;;;;;;;;;;6233345;28;20469;-90
2023/08/26 14:28:40;;;;;;;;;;;;;;;;;;6237574;28;20053;-90
2023/08/26 14:31:40;;;;;;;0.00;0.00;;;;;;;;;;6242838;28;20389;-90
2023/08/26 14:34:41;;;;;;;0.00;0.00;;;;;;;;;;6242115;28;20028;-90
2023/08/26 14:37:41;;;;;;;0.00;0.00;;;;;;;;;;6208763;28;20036;-90
2023/08/26 14:40:42;;;;;;;0.00;0.00;;;;;;;;;;6241362;28;20744;-90
2023/08/26 14:43:43;;;;;;;0.00;0.00;;;;;;;;;;6250929;28;20048;-90
2023/08/26 14:46:44;;;;;;;0.00;0.00;;;;;;;;;;6235008;28;20020;-88
2023/08/26 14:49:44;;;;;;;0.00;0.00;;;;;;;;;;6240112;28;20021;-87
2023/08/26 14:52:44;;;;;;;0.00;0.00;;;;;;;;;;6251740;28;20078;-87
2023/08/26 14:55:44;;;;;;;;;;;;;;;;;;6245717;28;20476;-88
2023/08/26 14:58:45;;;;;;;0.00;0.00;;;;;;;;;;6242002;28;19905;-88
2023/08/26 15:01:45;;;;;;;;;;;;;;;;;;6247325;28;20816;-88
2023/08/26 15:04:45;;;;;;;0.00;0.00;;;;;;;;;;6244413;28;19909;-87
2023/08/26 15:07:46;;;;;;;;;;;;;;;;;;6242406;28;20022;-87
2023/08/26 15:10:46;;;;;;;0.00;0.00;;;;;;;;;;6250456;28;19948;-87
2023/08/26 15:13:46;;;;;;;;;;;;;;;;;;6249033;28;20480;-88
2023/08/26 15:16:46;;;;;;;0.00;0.00;;;;;;;;;;6241939;28;20047;-88
2023/08/26 15:19:47;;;;;;;;;;;;;;;;;;6241942;28;20017;-87
2023/08/26 15:22:47;;;;;;;0.00;0.00;;;;;;;;;;6237336;28;20364;-87
2023/08/26 15:25:48;;;;;;;;;;;;;;;;;;6234907;28;20347;-86
2023/08/26 15:28:48;;;;;;;0.00;0.00;;;;;;;;;;6247860;28;19959;-87
2023/08/26 15:31:48;;;;;;;0.00;0.00;;;;;;;;;;6256812;28;20056;-85
2023/08/26 15:34:48;;;;;;;;;;;;;;;;;;6249496;28;20582;-86
2023/08/26 15:37:48;;;;;;;0.00;0.00;;;;;;;;;;6241412;28;19909;-84
2023/08/26 15:40:48;;;;;;;;;;;;;;;;;;6239841;28;20021;-84
2023/08/26 15:43:49;;;;;;;0.00;0.00;;;;;;;;;;6254708;28;19938;-83
2023/08/26 15:46:49;;;;;;;;;;;;;;;;;;6251448;28;20507;-82
2023/08/26 15:49:49;;;;;;;0.00;0.00;;;;;;;;;;6244340;28;19970;-83
2023/08/26 15:52:49;;;;;;;0.00;0.00;;;;;;;;;;6250197;28;20059;-83
2023/08/26 15:55:51;;;;;;;0.00;0.00;;;;;;;;;;6237720;28;20088;-84
2023/08/26 15:58:51;;;;;;;0.00;0.00;;;;;;;;;;6244746;28;20017;-84
2023/08/26 16:01:54;;;;;;;0.00;0.00;;;;;;;;;;6244871;28;20095;-84
2023/08/26 16:04:54;;;;;;;0.00;0.00;;;;;;;;;;6253347;28;20022;-84
2023/08/26 16:07:54;;;;;;;0.00;0.00;;;;;;;;;;6246510;28;20408;-84
2023/08/26 16:10:54;;;;;;;0.00;0.00;;;;;;;;;;6229506;28;20067;-84
2023/08/26 16:13:55;;;;;;;0.00;0.00;;;;;;;;;;6252242;28;20065;-85
2023/08/26 16:16:55;;;;;;;0.00;0.00;;;;;;;;;;6230544;28;20046;-84
2023/08/26 16:19:55;;;;;;;0.00;0.00;;;;;;;;;;6240632;28;20064;-84
2023/08/26 16:22:56;;;;;;;0.00;0.00;;;;;;;;;;6235028;28;20082;-84
2023/08/26 16:25:56;;;;;;;0.00;0.00;;;;;;;;;;6225848;28;20022;-85
2023/08/26 16:28:56;;;;;;;0.00;0.00;;;;;;;;;;6242664;28;20015;-85
2023/08/26 16:31:56;;;;;;;;;;;;;;;;;;6223439;28;20404;-84
2023/08/26 16:34:57;;;;;;;0.00;0.00;;;;;;;;;;6241763;28;20366;-85
2023/08/26 16:37:57;;;;;;;;;;;;;;;;;;6236267;28;20033;-85
2023/08/26 16:40:57;;;;;;;0.00;0.00;;;;;;;;;;6231872;28;19936;-84
2023/08/26 16:43:57;;;;;;;;;;;;;;;;;;6232575;28;20376;-85
2023/08/26 16:46:57;;;;;;;0.00;0.00;;;;;;;;;;6240095;28;19905;-84
2023/08/26 16:49:57;;;;;;;;;;;;;;;;;;6242389;28;20025;-84
2023/08/26 16:52:57;;;;;;;0.00;0.00;;;;;;;;;;6243653;28;19905;-85
2023/08/26 16:55:58;;;;;;;;;;;;;;;;;;6239624;28;20350;-85
2023/08/26 16:58:58;;;;;;;0.00;0.00;;;;;;;;;;6225660;28;19906;-84
2023/08/26 17:01:58;;;;;;;;;;;;;;;;;;6221631;28;20762;-84
2023/08/26 17:04:58;;;;;;;0.00;0.00;;;;;;;;;;6238301;28;19914;-85
2023/08/26 17:08:00;;;;;;;0.00;0.00;;;;;;;;;;6215173;28;20468;-85
2023/08/26 17:11:03;;;;;;;0.00;0.00;;;;;;;;;;6239556;28;20169;-84
2023/08/26 17:14:05;;;;;;;0.00;0.00;;;;;;;;;;6237209;28;20049;-85
2023/08/26 17:17:06;;;;;;;0.00;0.00;;;;;;;;;;6233725;28;20049;-84
2023/08/26 17:20:06;;;;;;;0.00;0.00;;;;;;;;;;6245006;28;20048;-85
2023/08/26 17:23:06;;;;;;;0.00;0.00;;;;;;;;;;6205469;28;20072;-84
2023/08/26 17:26:07;;;;;;;0.00;0.00;;;;;;;;;;6224156;28;20018;-84
2023/08/26 17:29:07;;;;;;;0.00;0.00;;;;;;;;;;6234968;28;20009;-84
2023/08/26 17:32:11;;;;;;;0.00;0.00;;;;;;;;;;6239797;28;20014;-85
2023/08/26 17:35:11;;;;;;;0.00;0.00;;;;;;;;;;6209897;28;20114;-84
2023/08/26 17:38:11;;;;;;;0.00;0.00;;;;;;;;;;6227018;28;20400;-84
2023/08/26 17:41:12;;;;;;;0.00;0.00;;;;;;;;;;6227956;28;20013;-84
2023/08/26 17:44:12;;;;;;;0.00;0.00;;;;;;;;;;6234193;28;20433;-84
2023/08/26 17:47:12;;;;;;;0.00;0.00;;;;;;;;;;6239742;28;20072;-84
2023/08/26 17:50:13;;;;;;;0.00;0.00;;;;;;;;;;6250362;28;20022;-84
2023/08/26 17:53:13;;;;;;;0.00;0.00;;;;;;;;;;6240809;28;20025;-84
2023/08/26 17:56:13;;;;;;;0.00;0.00;;;;;;;;;;6221866;28;20014;-84
2023/08/26 17:59:14;;;;;;;0.00;0.00;;;;;;;;;;6226054;28;20017;-84
2023/08/26 18:02:14;;;;;;;0.00;0.00;;;;;;;;;;6238290;28;20014;-84
2023/08/26 18:05:14;;;;;;;0.00;0.00;;;;;;;;;;6228710;28;20480;-84
2023/08/26 18:08:14;;;;;;;0.00;0.00;;;;;;;;;;6225124;28;20511;-87
2023/08/26 18:11:15;;;;;;;0.00;0.00;;;;;;;;;;6227492;28;20058;-85
2023/08/26 18:14:15;;;;;;;0.10;0.10;;;;;;;;;;6220345;28;20025;-85